Time;durP1;ratioP1;P1;durP2;ratioP2;P2;SDS_P1;SDS_P2;PMS_P1;PMS_P2;Temp;Humidity;BMP_temperature;BMP_pressure;BME280_temperature;BME280_humidity;BME280_pressure;Samples;Min_cycle;Max_cycle;Signal;HPM_P1;HPM_P2
2021/07/08 00:01:09;;;;;;;7.75;5.65;;;;;;;;;;5031223;28;20107;-76
2021/07/08 00:03:35;;;;;;;10.68;6.55;;;;;;;;;;5031966;28;20088;-74
2021/07/08 00:06:04;;;;;;;7.07;5.70;;;;;;;;;;5031600;28;20111;-75
2021/07/08 00:08:30;;;;;;;10.73;6.22;;;;;;;;;;5031805;28;20054;-76
2021/07/08 00:10:57;;;;;;;8.13;6.40;;;;;;;;;;5031204;28;20080;-76
2021/07/08 00:13:26;;;;;;;7.57;5.53;;;;;;;;;;5031897;28;20081;-76
2021/07/08 00:15:54;;;;;;;7.15;5.43;;;;;;;;;;5034694;28;20449;-75
2021/07/08 00:18:23;;;;;;;6.43;4.75;;;;;;;;;;5035962;28;20057;-75
2021/07/08 00:20:50;;;;;;;7.03;6.13;;;;;;;;;;5035447;28;20084;-75
2021/07/08 00:23:21;;;;;;;6.25;4.65;;;;;;;;;;5036106;28;20085;-75
2021/07/08 00:25:50;;;;;;;6.85;5.15;;;;;;;;;;5035779;28;20080;-75
2021/07/08 00:28:17;;;;;;;7.40;4.63;;;;;;;;;;5035643;28;20418;-75
2021/07/08 00:30:47;;;;;;;7.70;5.43;;;;;;;;;;5034541;28;20533;-75
2021/07/08 00:33:14;;;;;;;6.03;4.45;;;;;;;;;;5035188;28;20132;-76
2021/07/08 00:35:41;;;;;;;5.22;3.72;;;;;;;;;;5035020;28;20152;-75
2021/07/08 00:38:08;;;;;;;6.38;4.50;;;;;;;;;;5035334;28;20521;-75
2021/07/08 00:40:36;;;;;;;6.13;4.53;;;;;;;;;;5034791;28;20095;-76
2021/07/08 00:43:04;;;;;;;7.40;5.10;;;;;;;;;;5035365;28;20127;-76
2021/07/08 00:45:30;;;;;;;6.10;4.18;;;;;;;;;;5035131;28;20110;-75
2021/07/08 00:47:57;;;;;;;6.93;4.07;;;;;;;;;;5035041;28;20137;-76
2021/07/08 00:50:27;;;;;;;5.38;3.92;;;;;;;;;;5035159;28;20124;-75
2021/07/08 00:52:54;;;;;;;5.93;4.13;;;;;;;;;;5035181;28;20081;-76
2021/07/08 00:55:21;;;;;;;8.55;3.65;;;;;;;;;;5034906;28;20129;-76
2021/07/08 00:57:55;;;;;;;5.88;3.95;;;;;;;;;;5034785;28;20722;-76
2021/07/08 01:00:27;;;;;;;6.18;3.80;;;;;;;;;;5030066;28;20096;-76
2021/07/08 01:02:55;;;;;;;5.65;3.70;;;;;;;;;;5015064;28;20665;-75
2021/07/08 01:05:24;;;;;;;6.53;3.88;;;;;;;;;;5015222;28;20050;-75
2021/07/08 01:07:52;;;;;;;6.30;3.70;;;;;;;;;;5015648;28;20050;-76
2021/07/08 01:10:19;;;;;;;6.82;3.90;;;;;;;;;;5015363;28;20112;-76
2021/07/08 01:12:45;;;;;;;5.20;3.92;;;;;;;;;;5014257;28;20132;-76
2021/07/08 01:15:15;;;;;;;7.28;4.20;;;;;;;;;;5014715;28;20125;-76
2021/07/08 01:17:44;;;;;;;5.40;3.63;;;;;;;;;;5014929;28;20085;-76
2021/07/08 01:20:12;;;;;;;5.07;3.53;;;;;;;;;;5014795;28;20545;-76
2021/07/08 01:22:41;;;;;;;5.63;3.83;;;;;;;;;;5014084;28;20045;-76
2021/07/08 01:25:11;;;;;;;6.07;4.10;;;;;;;;;;5014714;28;20125;-76
2021/07/08 01:27:38;;;;;;;5.33;3.90;;;;;;;;;;5013664;28;20137;-76
2021/07/08 01:30:08;;;;;;;6.07;4.25;;;;;;;;;;5014473;28;20494;-76
2021/07/08 01:32:36;;;;;;;5.30;3.75;;;;;;;;;;5013694;28;20563;-76
2021/07/08 01:35:04;;;;;;;5.80;4.28;;;;;;;;;;5014485;28;20084;-76
2021/07/08 01:37:31;;;;;;;5.57;3.80;;;;;;;;;;5014260;28;20565;-76
2021/07/08 01:40:01;;;;;;;5.20;3.70;;;;;;;;;;5014387;28;20088;-76
2021/07/08 01:42:28;;;;;;;5.60;4.13;;;;;;;;;;5013922;28;20049;-76
2021/07/08 01:44:54;;;;;;;8.95;4.30;;;;;;;;;;5014375;28;20636;-75
2021/07/08 01:47:21;;;;;;;5.53;3.70;;;;;;;;;;5014076;28;20137;-76
2021/07/08 01:49:48;;;;;;;5.03;3.85;;;;;;;;;;5014384;28;20096;-76
2021/07/08 01:52:15;;;;;;;4.85;3.70;;;;;;;;;;5013353;28;20132;-76
2021/07/08 01:54:42;;;;;;;5.43;4.32;;;;;;;;;;5013832;28;20081;-76
2021/07/08 01:57:10;;;;;;;5.68;3.80;;;;;;;;;;5013850;28;20470;-76
2021/07/08 01:59:36;;;;;;;5.32;4.15;;;;;;;;;;5014078;28;20121;-76
2021/07/08 02:02:03;;;;;;;5.22;3.25;;;;;;;;;;5013314;28;20129;-76
2021/07/08 02:04:30;;;;;;;4.95;3.88;;;;;;;;;;5014101;28;20144;-76
2021/07/08 02:06:57;;;;;;;5.60;3.90;;;;;;;;;;5013798;28;20088;-76
2021/07/08 02:09:23;;;;;;;5.38;3.50;;;;;;;;;;5013742;28;20081;-75
2021/07/08 02:11:50;;;;;;;5.25;3.75;;;;;;;;;;5022699;28;20077;-76
2021/07/08 02:14:18;;;;;;;6.10;3.53;;;;;;;;;;5033347;28;20087;-75
2021/07/08 02:16:45;;;;;;;5.20;3.38;;;;;;;;;;5033342;28;20049;-74
2021/07/08 02:19:12;;;;;;;4.30;3.42;;;;;;;;;;5033727;28;20049;-75
2021/07/08 02:21:38;;;;;;;5.28;3.17;;;;;;;;;;5032900;28;20085;-76
2021/07/08 02:24:05;;;;;;;5.13;3.40;;;;;;;;;;5033794;28;20085;-76
2021/07/08 02:26:32;;;;;;;5.55;3.50;;;;;;;;;;5033226;28;20081;-76
2021/07/08 02:28:59;;;;;;;5.80;3.55;;;;;;;;;;5033215;28;20510;-76
2021/07/08 02:31:27;;;;;;;4.90;3.35;;;;;;;;;;5032643;28;20128;-76
2021/07/08 02:33:53;;;;;;;4.20;3.17;;;;;;;;;;5033038;28;20080;-76
2021/07/08 02:36:20;;;;;;;4.30;2.95;;;;;;;;;;5033055;28;20073;-76
2021/07/08 02:38:47;;;;;;;5.85;3.67;;;;;;;;;;5033255;28;20045;-76
2021/07/08 02:41:14;;;;;;;5.25;3.40;;;;;;;;;;5032734;28;20131;-75
2021/07/08 02:43:41;;;;;;;4.63;3.10;;;;;;;;;;5033721;28;20084;-76
2021/07/08 02:56:32;;;;;;;4.80;3.47;;;;;;;;;;4957652;29;20062;-79
2021/07/08 02:58:58;;;;;;;5.28;3.53;;;;;;;;;;4989406;28;20077;-80
2021/07/08 03:01:25;;;;;;;6.60;3.40;;;;;;;;;;5032087;28;20124;-80
2021/07/08 03:03:52;;;;;;;4.10;3.00;;;;;;;;;;5040055;28;20466;-81
2021/07/08 03:06:18;;;;;;;5.25;3.85;;;;;;;;;;5040133;28;20049;-81
2021/07/08 03:08:46;;;;;;;5.88;3.88;;;;;;;;;;5039254;28;20089;-80
2021/07/08 03:11:13;;;;;;;4.60;3.45;;;;;;;;;;5034882;28;20070;-81
2021/07/08 03:13:42;;;;;;;6.50;3.50;;;;;;;;;;5019195;28;20077;-81
2021/07/08 03:16:09;;;;;;;4.75;3.30;;;;;;;;;;5018396;28;20056;-80
2021/07/08 03:18:35;;;;;;;6.00;3.72;;;;;;;;;;5018287;28;20042;-81
2021/07/08 03:21:02;;;;;;;5.18;3.33;;;;;;;;;;5017681;28;20077;-80
2021/07/08 03:23:29;;;;;;;4.28;3.28;;;;;;;;;;5017927;28;20049;-80
2021/07/08 03:25:57;;;;;;;4.75;3.28;;;;;;;;;;5018184;28;20054;-80
2021/07/08 03:28:23;;;;;;;5.90;3.50;;;;;;;;;;5018151;28;20081;-80
2021/07/08 03:30:50;;;;;;;4.97;3.40;;;;;;;;;;5017474;28;20077;-81
2021/07/08 03:33:17;;;;;;;4.40;3.25;;;;;;;;;;5018374;28;20353;-81
2021/07/08 03:35:43;;;;;;;4.50;3.08;;;;;;;;;;5017794;28;20476;-81
2021/07/08 03:38:10;;;;;;;6.38;3.83;;;;;;;;;;5018436;28;20077;-81
2021/07/08 03:40:37;;;;;;;6.10;4.10;;;;;;;;;;5017881;28;20081;-81
2021/07/08 03:43:05;;;;;;;5.30;3.97;;;;;;;;;;5018248;28;20057;-80
2021/07/08 03:45:32;;;;;;;5.07;4.25;;;;;;;;;;5018611;28;20075;-80
2021/07/08 03:47:58;;;;;;;6.75;3.45;;;;;;;;;;5018324;28;20180;-80
2021/07/08 03:50:25;;;;;;;6.28;3.70;;;;;;;;;;5017893;28;20077;-80
2021/07/08 03:52:52;;;;;;;5.68;3.65;;;;;;;;;;5018209;28;20084;-80
2021/07/08 03:55:22;;;;;;;6.95;4.35;;;;;;;;;;5017188;28;20104;-81
2021/07/08 03:57:55;;;;;;;5.45;3.88;;;;;;;;;;5017758;28;20085;-80
2021/07/08 04:00:27;;;;;;;5.20;3.40;;;;;;;;;;5023652;28;20055;-80
2021/07/08 04:02:54;;;;;;;5.13;3.50;;;;;;;;;;5037423;28;20054;-81
2021/07/08 04:05:21;;;;;;;6.65;4.30;;;;;;;;;;5037787;28;20545;-80
2021/07/08 04:07:48;;;;;;;5.43;3.40;;;;;;;;;;5037769;28;20083;-81
2021/07/08 04:10:15;;;;;;;6.80;3.83;;;;;;;;;;5038777;28;20069;-81
2021/07/08 04:12:41;;;;;;;5.18;3.50;;;;;;;;;;5021646;28;20053;-81
2021/07/08 04:15:09;;;;;;;8.45;4.28;;;;;;;;;;5018361;28;20073;-81
2021/07/08 04:17:37;;;;;;;6.78;4.10;;;;;;;;;;5019000;28;20097;-81
2021/07/08 04:20:06;;;;;;;6.80;3.85;;;;;;;;;;5018217;28;20088;-81
2021/07/08 04:22:33;;;;;;;6.53;4.05;;;;;;;;;;5017519;28;20061;-81
2021/07/08 04:24:59;;;;;;;5.10;3.80;;;;;;;;;;5017659;28;20529;-81
2021/07/08 04:27:29;;;;;;;6.43;4.13;;;;;;;;;;5020821;28;20085;-81
2021/07/08 04:29:56;;;;;;;5.20;3.80;;;;;;;;;;5025451;28;20054;-81
2021/07/08 04:32:23;;;;;;;6.15;3.88;;;;;;;;;;5024687;28;20061;-81
2021/07/08 04:47:42;;;;;;;5.28;3.95;;;;;;;;;;4999422;28;20058;-82
2021/07/08 04:50:56;;;;;;;6.97;4.45;;;;;;;;;;4997098;28;20072;-82
2021/07/08 05:00:05;;;;;;;7.65;5.45;;;;;;;;;;4918648;29;20070;-80
2021/07/08 05:10:10;;;;;;;8.18;6.22;;;;;;;;;;4789151;29;20481;-81
2021/07/08 05:12:40;;;;;;;8.75;7.47;;;;;;;;;;4926943;29;20051;-79
2021/07/08 05:15:09;;;;;;;10.50;7.10;;;;;;;;;;4975578;28;20055;-80
2021/07/08 05:17:36;;;;;;;12.02;8.85;;;;;;;;;;5032429;28;20050;-80
2021/07/08 05:20:02;;;;;;;9.82;8.10;;;;;;;;;;5035110;28;20081;-81
2021/07/08 05:22:32;;;;;;;12.43;8.20;;;;;;;;;;5034141;28;20049;-80
2021/07/08 05:24:59;;;;;;;10.02;8.20;;;;;;;;;;5035573;28;20096;-80
2021/07/08 05:27:27;;;;;;;10.45;8.20;;;;;;;;;;5032389;28;20061;-81
2021/07/08 05:29:56;;;;;;;10.98;8.30;;;;;;;;;;5023381;28;20080;-81
2021/07/08 05:32:23;;;;;;;9.13;7.43;;;;;;;;;;5021952;28;20049;-81
2021/07/08 05:34:49;;;;;;;10.75;9.20;;;;;;;;;;5021347;28;20078;-80
2021/07/08 05:37:16;;;;;;;11.45;9.35;;;;;;;;;;5021283;28;20074;-81
2021/07/08 05:39:43;;;;;;;11.60;9.82;;;;;;;;;;5020903;28;20515;-81
2021/07/08 05:42:09;;;;;;;11.43;9.77;;;;;;;;;;5020805;28;20086;-80
2021/07/08 05:44:37;;;;;;;16.63;9.68;;;;;;;;;;5021237;28;20050;-81
2021/07/08 05:47:05;;;;;;;13.93;10.30;;;;;;;;;;5021983;28;20046;-81
2021/07/08 05:49:32;;;;;;;15.05;9.85;;;;;;;;;;5021677;28;20084;-81
2021/07/08 05:51:58;;;;;;;11.68;9.75;;;;;;;;;;5020844;28;20042;-81
2021/07/08 05:54:25;;;;;;;13.20;9.68;;;;;;;;;;5020311;28;20082;-81
2021/07/08 05:56:52;;;;;;;13.45;10.38;;;;;;;;;;5019732;28;20046;-81
2021/07/08 05:59:19;;;;;;;13.52;11.05;;;;;;;;;;5020830;28;20468;-81
2021/07/08 06:01:47;;;;;;;13.95;10.32;;;;;;;;;;5019501;28;20073;-81
2021/07/08 06:04:13;;;;;;;14.95;11.63;;;;;;;;;;5020137;28;20061;-81
2021/07/08 06:06:53;;;;;;;12.85;10.98;;;;;;;;;;5049181;22;20739;-81
2021/07/08 06:09:42;;;;;;;13.18;10.98;;;;;;;;;;5060358;28;20041;-81
2021/07/08 06:15:34;;;;;;;14.18;11.00;;;;;;;;;;5050248;28;20518;-80
2021/07/08 06:18:04;;;;;;;14.93;10.85;;;;;;;;;;5041573;28;20478;-80
2021/07/08 06:20:37;;;;;;;19.35;11.68;;;;;;;;;;5037891;28;20045;-80
2021/07/08 06:23:20;;;;;;;14.60;10.60;;;;;;;;;;5040846;28;20096;-81
2021/07/08 06:26:03;;;;;;;16.60;13.13;;;;;;;;;;5024722;28;20608;-81
2021/07/08 06:28:37;;;;;;;14.40;10.68;;;;;;;;;;5039389;28;20080;-81
2021/07/08 06:31:07;;;;;;;14.68;11.65;;;;;;;;;;5037405;28;20049;-81
2021/07/08 06:33:35;;;;;;;14.65;12.45;;;;;;;;;;5046384;28;20073;-80
2021/07/08 06:36:02;;;;;;;17.65;12.35;;;;;;;;;;5057456;28;20054;-79
2021/07/08 06:38:28;;;;;;;17.23;12.65;;;;;;;;;;5057333;28;20049;-80
2021/07/08 06:40:55;;;;;;;18.70;13.00;;;;;;;;;;5056373;28;20034;-80
2021/07/08 06:43:22;;;;;;;17.77;13.93;;;;;;;;;;5056769;28;20037;-80
2021/07/08 06:45:48;;;;;;;17.50;13.38;;;;;;;;;;5044256;28;20045;-80
2021/07/08 06:48:15;;;;;;;16.77;13.07;;;;;;;;;;5039239;28;20064;-81
2021/07/08 06:50:44;;;;;;;17.65;14.35;;;;;;;;;;5038008;28;20072;-80
2021/07/08 06:53:11;;;;;;;22.58;16.05;;;;;;;;;;5038876;28;20487;-81
2021/07/08 06:55:38;;;;;;;19.67;14.50;;;;;;;;;;5038497;28;20463;-81
2021/07/08 06:58:06;;;;;;;19.63;13.73;;;;;;;;;;5038958;28;20084;-80
2021/07/08 07:00:36;;;;;;;18.42;14.48;;;;;;;;;;5031349;28;20407;-80
2021/07/08 07:03:03;;;;;;;22.20;17.58;;;;;;;;;;5017654;28;20046;-80
2021/07/08 07:05:30;;;;;;;22.13;17.42;;;;;;;;;;5017911;28;20052;-81
2021/07/08 07:07:59;;;;;;;21.15;16.45;;;;;;;;;;5017481;28;20069;-80
2021/07/08 07:10:27;;;;;;;22.25;16.85;;;;;;;;;;5016825;28;20077;-78
2021/07/08 07:12:56;;;;;;;22.27;18.48;;;;;;;;;;5035223;28;20056;-78
2021/07/08 07:15:25;;;;;;;21.70;16.73;;;;;;;;;;5036234;28;20096;-78
2021/07/08 07:17:52;;;;;;;23.55;17.60;;;;;;;;;;5037295;28;20065;-79
2021/07/08 07:20:19;;;;;;;25.85;18.70;;;;;;;;;;5036077;28;20069;-80
2021/07/08 07:22:47;;;;;;;24.52;18.90;;;;;;;;;;5040643;28;20046;-80
2021/07/08 07:25:17;;;;;;;26.15;19.05;;;;;;;;;;5035814;28;20053;-80
2021/07/08 07:27:45;;;;;;;27.70;20.77;;;;;;;;;;5037172;28;20054;-80
2021/07/08 07:30:13;;;;;;;25.05;18.63;;;;;;;;;;5036457;28;20045;-80
2021/07/08 07:32:39;;;;;;;24.15;19.67;;;;;;;;;;5036315;28;20053;-80
2021/07/08 07:35:07;;;;;;;26.55;20.27;;;;;;;;;;5036657;28;20473;-80
2021/07/08 07:37:34;;;;;;;23.90;17.52;;;;;;;;;;5038562;28;20045;-80
2021/07/08 07:40:00;;;;;;;24.45;19.15;;;;;;;;;;5040324;28;20069;-79
2021/07/08 07:42:28;;;;;;;25.65;19.40;;;;;;;;;;5036717;28;20454;-79
2021/07/08 07:44:55;;;;;;;27.60;19.95;;;;;;;;;;5035874;28;20053;-80
2021/07/08 07:47:23;;;;;;;26.85;19.25;;;;;;;;;;5036421;28;20489;-80
2021/07/08 07:49:50;;;;;;;29.48;18.77;;;;;;;;;;5036889;28;20050;-80
2021/07/08 07:52:17;;;;;;;28.38;23.00;;;;;;;;;;5044064;28;20061;-80
2021/07/08 07:54:43;;;;;;;24.40;19.42;;;;;;;;;;5046581;28;20561;-78
2021/07/08 07:57:10;;;;;;;23.75;19.15;;;;;;;;;;5050031;28;20045;-78
2021/07/08 07:59:38;;;;;;;24.17;17.90;;;;;;;;;;5049623;28;20068;-78
2021/07/08 08:02:10;;;;;;;23.38;17.75;;;;;;;;;;5029294;28;20050;-78
2021/07/08 08:04:42;;;;;;;22.15;16.85;;;;;;;;;;5029099;28;20054;-78
2021/07/08 08:09:54;;;;;;;19.40;15.98;;;;;;;;;;5022071;28;20100;-80
2021/07/08 08:12:20;;;;;;;21.45;16.27;;;;;;;;;;5035412;28;20042;-80
2021/07/08 08:14:49;;;;;;;20.13;15.10;;;;;;;;;;5048669;28;20053;-79
2021/07/08 08:17:15;;;;;;;22.60;17.00;;;;;;;;;;5048622;28;20053;-80
2021/07/08 08:19:42;;;;;;;20.85;16.52;;;;;;;;;;5039756;28;20470;-80
2021/07/08 08:22:11;;;;;;;23.63;16.88;;;;;;;;;;5038914;28;20088;-79
2021/07/08 08:24:38;;;;;;;20.17;15.88;;;;;;;;;;5043008;28;20076;-79
2021/07/08 08:27:05;;;;;;;19.13;16.95;;;;;;;;;;5054592;28;20132;-79
2021/07/08 08:29:32;;;;;;;20.63;16.33;;;;;;;;;;5055298;28;20029;-80
2021/07/08 08:32:00;;;;;;;21.67;17.35;;;;;;;;;;5054673;28;20041;-80
2021/07/08 08:34:27;;;;;;;19.02;15.90;;;;;;;;;;5045890;28;20049;-81
2021/07/08 08:36:54;;;;;;;21.38;18.40;;;;;;;;;;5039619;28;20392;-80
2021/07/08 08:39:21;;;;;;;21.95;18.13;;;;;;;;;;5038901;28;20422;-80
2021/07/08 08:41:48;;;;;;;20.67;17.38;;;;;;;;;;5038421;28;20068;-80
2021/07/08 08:44:14;;;;;;;23.35;18.25;;;;;;;;;;5039181;28;20659;-80
2021/07/08 08:46:41;;;;;;;21.30;17.85;;;;;;;;;;5053967;22;20084;-77
2021/07/08 08:49:09;;;;;;;25.52;18.52;;;;;;;;;;5033307;28;20132;-75
2021/07/08 08:51:36;;;;;;;26.23;21.67;;;;;;;;;;5032309;28;20046;-76
2021/07/08 08:54:04;;;;;;;25.42;20.20;;;;;;;;;;5033184;28;20049;-76
2021/07/08 08:56:31;;;;;;;26.02;21.83;;;;;;;;;;5033172;28;20045;-76
2021/07/08 08:58:57;;;;;;;29.70;23.05;;;;;;;;;;5032862;28;20099;-76
2021/07/08 09:01:24;;;;;;;28.25;22.67;;;;;;;;;;5032111;28;20128;-76
2021/07/08 09:03:51;;;;;;;26.48;21.85;;;;;;;;;;5032533;28;20088;-77
2021/07/08 09:06:20;;;;;;;28.35;22.88;;;;;;;;;;5032949;28;20140;-76
2021/07/08 09:08:49;;;;;;;26.67;21.60;;;;;;;;;;5033181;28;20045;-74
2021/07/08 09:11:18;;;;;;;27.40;22.42;;;;;;;;;;5033041;28;20160;-76
2021/07/08 09:13:54;;;;;;;30.40;22.90;;;;;;;;;;5033037;28;20053;-76
2021/07/08 09:16:22;;;;;;;28.77;22.63;;;;;;;;;;5032656;28;20076;-76
2021/07/08 09:19:07;;;;;;;25.48;20.60;;;;;;;;;;5032436;28;20570;-76
2021/07/08 09:21:38;;;;;;;28.00;22.25;;;;;;;;;;5032582;28;20149;-76
2021/07/08 09:24:17;;;;;;;29.77;22.50;;;;;;;;;;5032813;28;20496;-75
2021/07/08 09:26:53;;;;;;;30.42;23.75;;;;;;;;;;5032575;28;20263;-75
2021/07/08 09:29:22;;;;;;;29.35;22.85;;;;;;;;;;5032565;28;20414;-76
2021/07/08 09:31:50;;;;;;;32.60;24.33;;;;;;;;;;5031826;28;20084;-76
2021/07/08 09:34:19;;;;;;;31.75;23.73;;;;;;;;;;5032557;28;20124;-77
2021/07/08 09:36:49;;;;;;;29.80;22.63;;;;;;;;;;5032323;28;20077;-76
2021/07/08 09:39:17;;;;;;;31.23;24.45;;;;;;;;;;5032299;28;20049;-76
2021/07/08 09:41:52;;;;;;;39.13;30.63;;;;;;;;;;5033214;28;20050;-78
2021/07/08 09:44:27;;;;;;;34.90;25.67;;;;;;;;;;5036446;28;20057;-83
2021/07/08 09:46:55;;;;;;;32.78;25.45;;;;;;;;;;5036450;28;20111;-76
2021/07/08 09:49:23;;;;;;;29.35;23.13;;;;;;;;;;5032987;28;20068;-77
2021/07/08 09:51:51;;;;;;;31.80;24.30;;;;;;;;;;5037318;28;20453;-77
2021/07/08 09:57:34;;;;;;;25.75;21.65;;;;;;;;;;5028976;28;20053;-78
2021/07/08 10:00:01;;;;;;;25.13;20.52;;;;;;;;;;5034265;28;20049;-78
2021/07/08 10:02:30;;;;;;;28.48;22.55;;;;;;;;;;5018872;28;20050;-76
2021/07/08 10:04:57;;;;;;;26.45;23.15;;;;;;;;;;5032393;28;20073;-77
2021/07/08 10:07:26;;;;;;;23.73;20.85;;;;;;;;;;5031476;28;20050;-76
2021/07/08 10:09:53;;;;;;;27.60;20.98;;;;;;;;;;5015275;28;20455;-75
2021/07/08 10:12:20;;;;;;;22.67;19.65;;;;;;;;;;5024988;28;20120;-75
2021/07/08 10:14:48;;;;;;;20.50;18.20;;;;;;;;;;5031502;28;20049;-75
2021/07/08 10:17:16;;;;;;;23.98;20.73;;;;;;;;;;5031513;28;20162;-77
2021/07/08 10:19:45;;;;;;;24.10;20.52;;;;;;;;;;5031672;28;20047;-76
2021/07/08 10:22:12;;;;;;;20.63;17.80;;;;;;;;;;5030915;28;20046;-76
2021/07/08 10:24:40;;;;;;;23.88;21.05;;;;;;;;;;5031740;28;20076;-77
2021/07/08 10:27:08;;;;;;;23.98;21.05;;;;;;;;;;5031646;28;20140;-77
2021/07/08 10:29:38;;;;;;;22.17;19.85;;;;;;;;;;5031792;28;20750;-76
2021/07/08 10:32:07;;;;;;;29.58;21.35;;;;;;;;;;5030908;28;20076;-76
2021/07/08 10:34:44;;;;;;;23.52;19.90;;;;;;;;;;5031783;28;20049;-76
2021/07/08 10:37:10;;;;;;;21.73;19.42;;;;;;;;;;5031005;28;20520;-77
2021/07/08 10:39:42;;;;;;;21.90;18.60;;;;;;;;;;5031256;28;20513;-76
2021/07/08 10:42:09;;;;;;;21.70;19.40;;;;;;;;;;5030936;28;20095;-77
2021/07/08 10:44:57;;;;;;;19.17;17.10;;;;;;;;;;5031737;28;20045;-76
2021/07/08 10:47:36;;;;;;;20.17;17.17;;;;;;;;;;5030902;28;20108;-77
2021/07/08 10:50:05;;;;;;;22.83;18.47;;;;;;;;;;5030781;28;20095;-77
2021/07/08 10:52:43;;;;;;;20.73;18.52;;;;;;;;;;5031686;28;20072;-77
2021/07/08 10:55:12;;;;;;;25.58;20.63;;;;;;;;;;5034612;28;20050;-76
2021/07/08 10:57:40;;;;;;;23.45;20.05;;;;;;;;;;5033953;28;20073;-76
2021/07/08 11:00:09;;;;;;;22.77;19.40;;;;;;;;;;5031810;28;20049;-76
2021/07/08 11:02:46;;;;;;;20.02;17.90;;;;;;;;;;5012664;28;20092;-77
2021/07/08 11:05:13;;;;;;;20.92;18.45;;;;;;;;;;5011284;28;20052;-76
2021/07/08 11:07:46;;;;;;;20.27;17.08;;;;;;;;;;5010747;28;20109;-76
2021/07/08 11:10:15;;;;;;;21.45;18.75;;;;;;;;;;5010892;28;20049;-76
2021/07/08 11:12:44;;;;;;;21.67;19.17;;;;;;;;;;5025850;28;20050;-76
2021/07/08 11:15:10;;;;;;;23.65;20.73;;;;;;;;;;5029869;28;20045;-76
2021/07/08 11:17:42;;;;;;;22.98;20.50;;;;;;;;;;5030330;28;20508;-76
2021/07/08 11:20:30;;;;;;;23.65;20.52;;;;;;;;;;5034374;28;20056;-77
2021/07/08 11:22:57;;;;;;;21.08;18.80;;;;;;;;;;5042289;28;20049;-77
2021/07/08 11:25:42;;;;;;;22.52;19.42;;;;;;;;;;5032766;28;20144;-79
2021/07/08 11:28:27;;;;;;;23.98;20.77;;;;;;;;;;5030874;28;20129;-77
2021/07/08 11:30:59;;;;;;;25.92;22.65;;;;;;;;;;5031998;28;20046;-78
2021/07/08 11:33:28;;;;;;;26.77;22.85;;;;;;;;;;5032688;28;20068;-78
2021/07/08 11:35:58;;;;;;;24.65;21.08;;;;;;;;;;5033759;28;20103;-81
2021/07/08 11:38:26;;;;;;;24.00;20.75;;;;;;;;;;5033108;28;20049;-77
2021/07/08 11:40:55;;;;;;;25.80;21.10;;;;;;;;;;5030783;28;20477;-77
2021/07/08 11:43:27;;;;;;;24.40;20.00;;;;;;;;;;5031217;28;20137;-76
2021/07/08 11:45:55;;;;;;;25.75;21.55;;;;;;;;;;5030168;28;20061;-76
2021/07/08 11:48:31;;;;;;;24.77;20.20;;;;;;;;;;5029930;28;20095;-77
2021/07/08 11:50:59;;;;;;;28.17;21.75;;;;;;;;;;5029956;28;20141;-78
2021/07/08 11:53:26;;;;;;;24.92;21.42;;;;;;;;;;5031958;28;20049;-77
2021/07/08 11:55:56;;;;;;;26.45;22.98;;;;;;;;;;5028529;28;20128;-77
2021/07/08 11:58:29;;;;;;;26.45;22.83;;;;;;;;;;5029365;28;20609;-75
2021/07/08 12:00:57;;;;;;;28.17;22.58;;;;;;;;;;5026501;28;20041;-77
2021/07/08 12:03:27;;;;;;;26.13;21.40;;;;;;;;;;5030239;28;20045;-76
2021/07/08 12:05:59;;;;;;;27.02;22.45;;;;;;;;;;5029940;28;20045;-75
2021/07/08 12:08:29;;;;;;;25.27;20.83;;;;;;;;;;5030291;28;20138;-76
2021/07/08 12:11:11;;;;;;;26.55;20.50;;;;;;;;;;5029076;28;20133;-75
2021/07/08 12:13:50;;;;;;;24.17;20.25;;;;;;;;;;5013929;28;20487;-76
2021/07/08 12:16:19;;;;;;;27.55;22.40;;;;;;;;;;5014034;28;20081;-75
2021/07/08 12:18:48;;;;;;;26.70;21.35;;;;;;;;;;5013881;28;20081;-77
2021/07/08 12:21:26;;;;;;;25.98;20.98;;;;;;;;;;5013723;28;20092;-75
2021/07/08 12:23:54;;;;;;;24.70;20.48;;;;;;;;;;5013476;28;20073;-77
2021/07/08 12:26:27;;;;;;;24.42;18.23;;;;;;;;;;5014019;28;20085;-76
2021/07/08 12:29:20;;;;;;;19.40;14.95;;;;;;;;;;5014213;28;20116;-76
2021/07/08 12:31:52;;;;;;;13.48;11.35;;;;;;;;;;5016791;28;20108;-76
2021/07/08 12:34:20;;;;;;;13.18;9.10;;;;;;;;;;5014491;28;20409;-76
2021/07/08 12:36:47;;;;;;;10.32;8.23;;;;;;;;;;5015294;28;20077;-74
2021/07/08 12:39:23;;;;;;;10.23;8.73;;;;;;;;;;5017679;28;20143;-76
2021/07/08 12:41:52;;;;;;;9.52;7.35;;;;;;;;;;5034583;28;20088;-76
2021/07/08 12:44:18;;;;;;;9.45;7.70;;;;;;;;;;5033940;28;20543;-75
2021/07/08 12:46:45;;;;;;;10.10;7.22;;;;;;;;;;5033456;28;20049;-77
2021/07/08 12:49:15;;;;;;;10.80;7.68;;;;;;;;;;5033932;28;20132;-76
2021/07/08 12:51:42;;;;;;;7.75;6.65;;;;;;;;;;5033805;28;20084;-76
2021/07/08 12:54:09;;;;;;;7.25;5.57;;;;;;;;;;5033882;28;20498;-75
2021/07/08 12:56:35;;;;;;;6.35;5.00;;;;;;;;;;5033954;28;20414;-76
2021/07/08 12:59:04;;;;;;;5.53;4.35;;;;;;;;;;5034125;28;20139;-75
2021/07/08 13:01:31;;;;;;;6.93;4.22;;;;;;;;;;5033502;28;20473;-77
2021/07/08 13:03:59;;;;;;;5.65;4.38;;;;;;;;;;5020614;28;20046;-76
2021/07/08 13:06:28;;;;;;;6.43;4.70;;;;;;;;;;5013521;28;20054;-75
2021/07/08 13:09:09;;;;;;;5.43;4.13;;;;;;;;;;5014266;28;20045;-75
2021/07/08 13:11:36;;;;;;;4.82;3.67;;;;;;;;;;5020442;28;20095;-76
2021/07/08 13:14:22;;;;;;;5.50;3.83;;;;;;;;;;5033074;28;20077;-76
2021/07/08 13:17:03;;;;;;;4.47;3.15;;;;;;;;;;5034068;28;20046;-76
2021/07/08 13:19:30;;;;;;;5.13;3.72;;;;;;;;;;5033552;28;20191;-76
2021/07/08 13:21:56;;;;;;;4.45;3.30;;;;;;;;;;5032293;28;20042;-76
2021/07/08 13:24:24;;;;;;;5.65;3.97;;;;;;;;;;5033730;28;20136;-76
2021/07/08 13:26:51;;;;;;;5.00;4.05;;;;;;;;;;5033644;28;20061;-76
2021/07/08 13:29:25;;;;;;;5.63;3.67;;;;;;;;;;5033751;28;20046;-77
2021/07/08 13:31:52;;;;;;;4.32;3.20;;;;;;;;;;5032532;28;20052;-76
2021/07/08 13:34:23;;;;;;;4.28;3.40;;;;;;;;;;5034857;28;20077;-76
2021/07/08 13:36:50;;;;;;;5.75;3.97;;;;;;;;;;5034066;28;20556;-76
2021/07/08 13:39:17;;;;;;;7.82;4.05;;;;;;;;;;5034427;28;20129;-74
2021/07/08 13:41:46;;;;;;;5.38;3.90;;;;;;;;;;5034258;28;20119;-75
2021/07/08 13:44:16;;;;;;;5.37;4.20;;;;;;;;;;5034245;28;20053;-76
2021/07/08 13:46:45;;;;;;;8.20;5.68;;;;;;;;;;5033458;28;20290;-75
2021/07/08 13:49:13;;;;;;;6.45;5.53;;;;;;;;;;5033613;28;20128;-76
2021/07/08 13:51:46;;;;;;;5.22;4.53;;;;;;;;;;5033194;28;20085;-75
2021/07/08 13:54:14;;;;;;;5.40;3.03;;;;;;;;;;5033813;28;20101;-77
2021/07/08 13:56:41;;;;;;;4.13;2.90;;;;;;;;;;5033412;28;20132;-75
2021/07/08 13:59:07;;;;;;;4.55;2.95;;;;;;;;;;5033858;28;20085;-74
2021/07/08 14:01:34;;;;;;;4.53;2.90;;;;;;;;;;5033083;28;20073;-76
2021/07/08 14:04:04;;;;;;;5.95;3.45;;;;;;;;;;5033439;28;20045;-76
2021/07/08 14:06:32;;;;;;;7.37;4.37;;;;;;;;;;5033886;28;20077;-75
2021/07/08 14:08:59;;;;;;;5.32;3.80;;;;;;;;;;5033652;28;20144;-75
2021/07/08 14:11:26;;;;;;;5.55;4.07;;;;;;;;;;5027121;28;20097;-74
2021/07/08 14:13:54;;;;;;;7.00;4.13;;;;;;;;;;5019613;28;20049;-75
2021/07/08 14:16:21;;;;;;;4.32;3.10;;;;;;;;;;5020069;28;20048;-75
2021/07/08 14:18:48;;;;;;;3.97;2.50;;;;;;;;;;5018158;28;20073;-75
2021/07/08 14:21:17;;;;;;;2.80;1.70;;;;;;;;;;5016867;28;20679;-75
2021/07/08 14:23:44;;;;;;;3.15;2.05;;;;;;;;;;5013835;28;20085;-75
2021/07/08 14:26:11;;;;;;;18.50;15.40;;;;;;;;;;5014158;28;20510;-75
2021/07/08 14:28:38;;;;;;;6.72;4.78;;;;;;;;;;5013154;28;20156;-76
2021/07/08 14:31:05;;;;;;;3.45;2.45;;;;;;;;;;5013266;28;20081;-75
2021/07/08 14:33:32;;;;;;;3.80;2.30;;;;;;;;;;5012508;28;20106;-75
2021/07/08 14:36:00;;;;;;;3.80;2.63;;;;;;;;;;5012550;28;20089;-77
2021/07/08 14:38:28;;;;;;;4.50;2.22;;;;;;;;;;5012348;28;20088;-76
2021/07/08 14:40:56;;;;;;;3.88;2.00;;;;;;;;;;5011731;28;20045;-76
2021/07/08 14:43:35;;;;;;;8.25;6.47;;;;;;;;;;5012289;28;20081;-75
2021/07/08 14:46:07;;;;;;;8.73;6.82;;;;;;;;;;5012479;28;20053;-76
2021/07/08 14:48:34;;;;;;;8.85;6.15;;;;;;;;;;5012132;28;20078;-76
2021/07/08 14:51:02;;;;;;;4.85;3.20;;;;;;;;;;5039218;23;20139;-78
2021/07/08 14:53:30;;;;;;;5.43;2.22;;;;;;;;;;5051325;28;20049;-78
2021/07/08 14:55:57;;;;;;;5.93;2.38;;;;;;;;;;5052003;28;20041;-78
2021/07/08 14:58:23;;;;;;;3.47;2.08;;;;;;;;;;5053943;28;20136;-78
2021/07/08 15:00:50;;;;;;;3.78;2.00;;;;;;;;;;5042766;28;20143;-77
2021/07/08 15:03:17;;;;;;;4.82;2.97;;;;;;;;;;5031669;28;20088;-78
2021/07/08 15:05:44;;;;;;;4.05;2.70;;;;;;;;;;5038607;28;20076;-78
2021/07/08 15:08:12;;;;;;;6.03;2.80;;;;;;;;;;5031866;28;20057;-78
2021/07/08 15:10:40;;;;;;;4.25;2.85;;;;;;;;;;5030801;28;20046;-77
2021/07/08 15:13:08;;;;;;;7.57;5.47;;;;;;;;;;5033591;28;20488;-77
2021/07/08 15:15:34;;;;;;;4.78;2.30;;;;;;;;;;5031731;28;20045;-77
2021/07/08 15:18:01;;;;;;;4.40;2.35;;;;;;;;;;5032566;28;20049;-77
2021/07/08 15:20:28;;;;;;;3.17;2.05;;;;;;;;;;5030583;28;20092;-78
2021/07/08 15:22:57;;;;;;;7.45;3.15;;;;;;;;;;5032693;28;20103;-77
2021/07/08 15:25:24;;;;;;;6.60;3.65;;;;;;;;;;5031285;28;20048;-77
2021/07/08 15:27:53;;;;;;;3.58;2.25;;;;;;;;;;5032742;28;20529;-77